Time;durP1;ratioP1;P1;durP2;ratioP2;P2;SDS_P1;SDS_P2;PMS_P1;PMS_P2;Temp;Humidity;BMP_temperature;BMP_pressure;BME280_temperature;BME280_humidity;BME280_pressure;Samples;Min_cycle;Max_cycle;Signal;HPM_P1;HPM_P2
2021/12/25 00:00:59;;;;;;;7.07;5.30;;;7.50;66.00;;;;;;5031161;28;20400;-76
2021/12/25 00:03:25;;;;;;;6.57;5.95;;;7.40;66.10;;;;;;5014105;28;20381;-75
2021/12/25 00:05:54;;;;;;;8.50;5.77;;;7.50;67.80;;;;;;5014045;28;20539;-75
2021/12/25 00:08:24;;;;;;;6.20;5.60;;;7.40;67.90;;;;;;5013696;28;20396;-75
2021/12/25 00:10:50;;;;;;;7.50;5.82;;;7.30;69.50;;;;;;5031168;28;20537;-74
2021/12/25 00:13:19;;;;;;;8.50;6.63;;;7.30;71.20;;;;;;5031981;28;20895;-76
2021/12/25 00:15:45;;;;;;;6.30;5.70;;;7.20;72.50;;;;;;5033585;28;20899;-75
2021/12/25 00:18:10;;;;;;;6.90;6.20;;;7.20;71.40;;;;;;5026755;28;20408;-74
2021/12/25 00:20:36;;;;;;;6.63;5.67;;;7.30;70.60;;;;;;5022004;28;20414;-73
2021/12/25 00:23:04;;;;;;;7.67;6.40;;;7.20;69.90;;;;;;5026070;28;20857;-74
2021/12/25 00:25:34;;;;;;;8.15;6.43;;;7.30;70.30;;;;;;5032828;28;20383;-74
2021/12/25 00:28:16;;;;;;;7.80;5.90;;;7.30;69.10;;;;;;5030442;28;20896;-74
2021/12/25 00:30:48;;;;;;;7.20;6.20;;;7.30;70.10;;;;;;5032358;28;20836;-74
2021/12/25 00:33:35;;;;;;;6.80;6.10;;;7.20;70.20;;;;;;5032290;28;20471;-74
2021/12/25 00:36:02;;;;;;;6.63;5.70;;;7.10;73.00;;;;;;5034706;28;20411;-74
2021/12/25 00:38:28;;;;;;;5.15;4.65;;;7.10;72.90;;;;;;5016891;28;20400;-74
2021/12/25 00:40:53;;;;;;;6.10;5.17;;;7.10;71.30;;;;;;5012657;28;20385;-73
2021/12/25 00:43:19;;;;;;;3.63;3.30;;;7.10;68.50;;;;;;5012874;28;20388;-73
2021/12/25 00:45:44;;;;;;;2.90;2.70;;;7.10;65.50;;;;;;5021544;28;20406;-73
2021/12/25 00:48:10;;;;;;;4.50;3.30;;;7.00;65.50;;;;;;5032225;28;20411;-73
2021/12/25 00:50:35;;;;;;;3.85;3.35;;;6.90;67.60;;;;;;5032737;28;20402;-73
2021/12/25 00:53:01;;;;;;;4.70;3.67;;;6.90;67.60;;;;;;5012301;28;20408;-74
2021/12/25 00:55:27;;;;;;;5.35;4.28;;;6.90;69.40;;;;;;5012547;28;20408;-74
2021/12/25 00:57:52;;;;;;;5.40;4.47;;;6.80;71.30;;;;;;5023045;28;20400;-74
2021/12/25 01:00:19;;;;;;;5.45;3.88;;;6.80;70.90;;;;;;5032938;28;20427;-73
2021/12/25 01:02:46;;;;;;;4.80;4.35;;;6.70;70.30;;;;;;5032768;28;20860;-73
2021/12/25 01:05:14;;;;;;;4.70;4.20;;;6.70;70.90;;;;;;5032583;28;20438;-74
2021/12/25 01:07:40;;;;;;;5.10;4.30;;;6.70;71.80;;;;;;5013238;28;20408;-73
2021/12/25 01:10:11;;;;;;;4.60;4.20;;;6.70;70.00;;;;;;5024202;28;20772;-73
2021/12/25 01:12:53;;;;;;;5.90;4.53;;;6.60;69.80;;;;;;5032293;28;20388;-74
2021/12/25 01:15:25;;;;;;;8.10;5.50;;;6.60;71.60;;;;;;5031706;28;20434;-73
2021/12/25 01:20:58;;;;;;;6.57;5.88;;;6.60;72.60;;;;;;5029834;28;20402;-74
2021/12/25 01:49:31;;;;;;;6.60;5.90;;;6.40;69.50;;;;;;5022215;28;20436;-73
2021/12/25 01:51:56;;;;;;;8.55;7.10;;;6.40;64.70;;;;;;5012224;28;20397;-74
2021/12/25 01:54:22;;;;;;;9.05;6.40;;;6.30;66.20;;;;;;5012224;28;20455;-74
2021/12/25 01:56:48;;;;;;;8.27;6.97;;;6.10;67.40;;;;;;5012128;28;20447;-74
2021/12/25 01:59:14;;;;;;;10.60;7.63;;;6.10;69.70;;;;;;5044061;28;20393;-74
2021/12/25 02:01:40;;;;;;;9.95;7.47;;;6.00;70.10;;;;;;5051386;28;20385;-74
2021/12/25 02:04:06;;;;;;;9.30;7.10;;;6.10;70.20;;;;;;5028857;28;20484;-74
2021/12/25 02:06:32;;;;;;;8.20;6.97;;;6.20;66.60;;;;;;5012239;28;20393;-74
2021/12/25 02:08:58;;;;;;;9.80;7.30;;;6.20;68.90;;;;;;5027820;28;20397;-74
2021/12/25 02:11:24;;;;;;;8.88;7.50;;;6.30;66.10;;;;;;5031288;28;20387;-75
2021/12/25 02:13:51;;;;;;;10.35;7.93;;;6.20;65.90;;;;;;5031161;28;20379;-75
2021/12/25 02:16:19;;;;;;;10.50;8.18;;;6.30;65.60;;;;;;5030970;28;20431;-76
2021/12/25 02:21:26;;;;;;;11.15;8.23;;;6.30;65.40;;;;;;5031393;28;20391;-74
2021/12/25 02:23:56;;;;;;;13.65;10.10;;;6.30;65.30;;;;;;5034763;28;20421;-74
2021/12/25 02:26:24;;;;;;;17.50;10.70;;;6.30;65.90;;;;;;5019052;28;20412;-73
2021/12/25 02:28:50;;;;;;;23.30;11.82;;;6.20;71.50;;;;;;5023367;28;20436;-72
2021/12/25 02:31:17;;;;;;;18.08;12.40;;;6.20;68.90;;;;;;5022248;28;20400;-73
2021/12/25 02:33:43;;;;;;;17.40;12.95;;;6.00;69.40;;;;;;5011203;28;20495;-74
2021/12/25 02:36:10;;;;;;;19.17;12.90;;;5.80;72.40;;;;;;5010860;28;20924;-73
2021/12/25 02:38:36;;;;;;;18.67;13.05;;;5.70;74.20;;;;;;5023230;28;20410;-72
2021/12/25 02:41:03;;;;;;;19.10;13.98;;;5.80;73.60;;;;;;5030477;28;20946;-73
2021/12/25 02:43:29;;;;;;;18.67;12.98;;;5.90;70.70;;;;;;5030753;28;20480;-73
2021/12/25 02:45:55;;;;;;;20.88;14.20;;;5.80;72.10;;;;;;5029890;28;20478;-72
2021/12/25 02:48:22;;;;;;;20.17;14.15;;;5.80;72.70;;;;;;5025170;28;20399;-72
2021/12/25 02:50:48;;;;;;;16.10;12.38;;;5.90;72.00;;;;;;5031105;28;20394;-72
2021/12/25 02:53:15;;;;;;;17.48;12.45;;;5.80;71.30;;;;;;5031162;28;20387;-72
2021/12/25 02:55:43;;;;;;;17.80;12.77;;;5.90;69.90;;;;;;5030888;28;20403;-73
2021/12/25 02:58:09;;;;;;;19.30;13.70;;;5.80;70.90;;;;;;5035103;28;20395;-71
2021/12/25 03:00:46;;;;;;;20.88;12.60;;;5.80;71.80;;;;;;5029959;28;20403;-72
2021/12/25 03:03:12;;;;;;;18.35;12.90;;;5.80;67.80;;;;;;5030390;28;20383;-72
2021/12/25 03:05:38;;;;;;;17.10;12.30;;;5.60;68.50;;;;;;5024547;28;20400;-72
2021/12/25 03:08:06;;;;;;;19.10;13.05;;;5.50;69.60;;;;;;5023108;28;20942;-72
2021/12/25 03:10:33;;;;;;;19.10;13.40;;;5.50;71.20;;;;;;5033780;28;20472;-72
2021/12/25 03:15:51;;;;;;;19.17;13.45;;;5.30;71.80;;;;;;5014200;28;20446;-72
2021/12/25 03:18:20;;;;;;;16.30;11.60;;;5.40;70.80;;;;;;5033080;28;20403;-72
2021/12/25 03:20:49;;;;;;;18.60;12.65;;;5.30;68.70;;;;;;5035734;28;20474;-72
2021/12/25 03:23:17;;;;;;;16.75;11.75;;;5.30;70.70;;;;;;5032935;28;20873;-72
2021/12/25 03:25:45;;;;;;;18.15;13.40;;;5.30;70.00;;;;;;5034155;28;20395;-72
2021/12/25 03:28:11;;;;;;;16.45;12.40;;;5.10;72.10;;;;;;5022920;28;20385;-72
2021/12/25 03:30:39;;;;;;;20.40;13.93;;;5.10;75.20;;;;;;5014288;28;20430;-72
2021/12/25 03:33:11;;;;;;;21.35;15.07;;;5.20;71.90;;;;;;5014539;28;20401;-73
2021/12/25 03:35:37;;;;;;;21.48;14.20;;;5.40;71.20;;;;;;5014777;28;21811;-72
2021/12/25 03:38:09;;;;;;;20.63;14.70;;;5.40;67.70;;;;;;5020275;28;20397;-73
2021/12/25 03:40:36;;;;;;;19.85;14.27;;;5.30;68.80;;;;;;5033271;28;20725;-72
2021/12/25 03:43:02;;;;;;;19.87;14.37;;;5.30;69.50;;;;;;5028229;28;20483;-73
2021/12/25 03:45:30;;;;;;;20.63;15.55;;;5.20;69.90;;;;;;5011384;28;20392;-72
2021/12/25 03:48:07;;;;;;;19.10;14.52;;;5.30;69.00;;;;;;5017404;28;20395;-72
2021/12/25 03:58:37;;;;;;;20.97;14.97;;;5.20;67.20;;;;;;5032288;28;20400;-74
2021/12/25 04:01:24;;;;;;;21.15;14.40;;;5.20;67.60;;;;;;5053767;28;20874;-72
2021/12/25 04:04:08;;;;;;;21.10;14.45;;;5.20;66.00;;;;;;5053432;28;20392;-73
2021/12/25 04:06:35;;;;;;;20.23;14.60;;;5.10;67.50;;;;;;5053442;28;20448;-71
2021/12/25 04:09:09;;;;;;;20.52;14.85;;;5.10;69.10;;;;;;5038705;28;20400;-71
2021/12/25 04:11:35;;;;;;;20.25;14.55;;;5.10;69.20;;;;;;5033509;28;20470;-72
2021/12/25 04:14:01;;;;;;;19.75;14.60;;;5.10;66.60;;;;;;5033430;28;20390;-72
2021/12/25 04:16:26;;;;;;;18.80;13.80;;;5.10;67.20;;;;;;5030545;28;20416;-72
2021/12/25 04:18:53;;;;;;;20.90;14.85;;;5.00;66.20;;;;;;5032417;28;20885;-73
2021/12/25 04:21:19;;;;;;;20.15;14.23;;;5.10;67.80;;;;;;5033594;28;20793;-72
2021/12/25 04:23:45;;;;;;;20.27;14.97;;;5.00;67.90;;;;;;5032142;28;20383;-71
2021/12/25 04:26:12;;;;;;;20.50;14.98;;;5.00;68.20;;;;;;5033502;28;20401;-77
2021/12/25 04:28:45;;;;;;;19.40;14.38;;;5.00;66.80;;;;;;5025285;28;20455;-75
2021/12/25 04:50:39;;;;;;;22.60;15.82;;;4.80;69.30;;;;;;5033009;28;20414;-74
2021/12/25 05:03:59;;;;;;;24.67;16.90;;;4.70;70.90;;;;;;5052714;28;20392;-74
2021/12/25 05:06:25;;;;;;;24.52;16.60;;;4.70;69.10;;;;;;5033109;28;20420;-74
2021/12/25 05:08:52;;;;;;;24.97;17.30;;;4.60;71.00;;;;;;5012630;28;20397;-75
2021/12/25 05:11:17;;;;;;;26.50;18.00;;;4.60;71.50;;;;;;5012851;28;20395;-74
2021/12/25 05:13:45;;;;;;;27.27;17.70;;;4.50;72.10;;;;;;5012504;28;20577;-74
2021/12/25 05:16:11;;;;;;;26.73;18.63;;;4.40;72.80;;;;;;5026964;28;20768;-74
2021/12/25 05:18:37;;;;;;;28.23;19.20;;;4.40;74.90;;;;;;5032182;28;20387;-74
2021/12/25 05:21:02;;;;;;;32.03;19.20;;;4.40;76.50;;;;;;5012189;28;20487;-74
2021/12/25 05:23:28;;;;;;;28.43;19.10;;;4.30;78.30;;;;;;5013004;28;20890;-74
2021/12/25 05:25:54;;;;;;;27.27;18.85;;;4.40;74.30;;;;;;5019412;28;20431;-74
2021/12/25 05:28:25;;;;;;;26.23;17.20;;;4.40;75.90;;;;;;5012511;28;20392;-74
2021/12/25 05:30:52;;;;;;;23.67;16.40;;;4.50;71.10;;;;;;5010540;28;20405;-74
2021/12/25 05:33:18;;;;;;;25.92;17.63;;;4.50;69.00;;;;;;5015723;28;20476;-74
2021/12/25 05:35:44;;;;;;;24.55;17.02;;;4.30;71.70;;;;;;5021669;28;20901;-75
2021/12/25 05:38:14;;;;;;;24.67;16.57;;;4.30;71.20;;;;;;5012580;28;20393;-74
2021/12/25 05:40:43;;;;;;;24.27;16.20;;;4.20;70.60;;;;;;5012865;28;20376;-74
2021/12/25 05:43:09;;;;;;;25.92;17.52;;;4.20;71.70;;;;;;5017412;28;20393;-74
2021/12/25 05:45:35;;;;;;;27.13;16.58;;;4.10;72.20;;;;;;5024785;28;20551;-74
2021/12/25 05:48:00;;;;;;;25.42;16.45;;;4.10;73.50;;;;;;5032378;28;20939;-75
2021/12/25 05:50:26;;;;;;;22.63;15.73;;;4.10;74.30;;;;;;5031579;28;20919;-74
2021/12/25 05:52:54;;;;;;;23.17;15.83;;;4.20;72.10;;;;;;5031697;28;20394;-74
2021/12/25 05:55:19;;;;;;;24.00;16.00;;;4.10;75.50;;;;;;5030748;28;20395;-74
2021/12/25 05:57:45;;;;;;;21.93;15.00;;;4.10;73.30;;;;;;5032712;28;20403;-74
2021/12/25 06:00:11;;;;;;;20.20;13.67;;;4.10;73.30;;;;;;5052107;28;20385;-74
2021/12/25 06:02:36;;;;;;;19.67;13.10;;;4.10;71.60;;;;;;5030426;28;20774;-74
2021/12/25 06:05:04;;;;;;;19.10;12.87;;;4.00;72.80;;;;;;5015501;28;20381;-74
2021/12/25 06:07:31;;;;;;;18.38;12.00;;;3.90;72.60;;;;;;5010884;28;20412;-74
2021/12/25 06:09:57;;;;;;;17.13;12.20;;;4.00;71.70;;;;;;5012362;28;20392;-73
2021/12/25 06:12:24;;;;;;;18.20;11.65;;;3.90;70.60;;;;;;5032685;28;20387;-73
2021/12/25 06:14:51;;;;;;;17.70;13.02;;;3.80;71.60;;;;;;5033152;28;20383;-73
2021/12/25 06:17:17;;;;;;;18.90;12.40;;;3.70;74.90;;;;;;5034099;28;20560;-74
2021/12/25 06:19:43;;;;;;;15.45;12.07;;;3.70;72.00;;;;;;5031679;28;20757;-73
2021/12/25 06:22:08;;;;;;;17.42;11.98;;;3.60;72.50;;;;;;5030609;28;20395;-74
2021/12/25 06:24:34;;;;;;;16.55;11.40;;;3.60;74.40;;;;;;5031295;28;20387;-75
2021/12/25 06:26:59;;;;;;;16.43;11.60;;;3.60;74.10;;;;;;5031257;28;20440;-74
2021/12/25 06:29:25;;;;;;;18.50;12.47;;;3.50;73.40;;;;;;5027657;28;20410;-74
2021/12/25 06:31:52;;;;;;;17.53;11.43;;;3.50;73.50;;;;;;5012822;28;20455;-75
2021/12/25 06:34:19;;;;;;;16.30;11.93;;;3.60;71.90;;;;;;5031398;28;20434;-75
2021/12/25 06:36:44;;;;;;;15.80;10.90;;;3.50;72.70;;;;;;5030923;28;20519;-75
2021/12/25 06:39:14;;;;;;;16.17;11.50;;;3.50;71.70;;;;;;5031180;28;20418;-75
2021/12/25 06:41:40;;;;;;;16.15;11.60;;;3.50;72.20;;;;;;5030533;28;20391;-74
2021/12/25 06:44:05;;;;;;;18.25;12.25;;;3.50;71.90;;;;;;5014167;28;20384;-74
2021/12/25 06:46:31;;;;;;;15.60;10.88;;;3.40;73.70;;;;;;5015291;28;20901;-74
2021/12/25 06:48:57;;;;;;;16.73;11.43;;;3.40;72.70;;;;;;5025253;28;20394;-75
2021/12/25 06:51:22;;;;;;;17.87;12.50;;;3.40;73.60;;;;;;5035454;28;20394;-74
2021/12/25 06:53:48;;;;;;;17.08;11.73;;;3.40;75.10;;;;;;5034050;28;20391;-74
2021/12/25 06:56:14;;;;;;;14.75;10.73;;;3.40;73.50;;;;;;5034749;28;20409;-75
2021/12/25 06:58:39;;;;;;;14.68;10.77;;;3.30;72.90;;;;;;5039893;28;20882;-74
2021/12/25 07:01:05;;;;;;;16.47;11.47;;;3.20;73.30;;;;;;5055085;28;20447;-74
2021/12/25 07:03:31;;;;;;;15.00;10.88;;;3.30;72.20;;;;;;5054965;28;20457;-74
2021/12/25 07:05:56;;;;;;;15.38;11.30;;;3.30;72.50;;;;;;5053061;28;20381;-74
2021/12/25 07:08:22;;;;;;;13.73;10.20;;;3.30;73.50;;;;;;5034600;28;20426;-74
2021/12/25 07:10:48;;;;;;;15.40;11.40;;;3.30;72.50;;;;;;5034400;28;20532;-74
2021/12/25 07:13:18;;;;;;;13.68;11.23;;;3.30;71.40;;;;;;5033702;28;20782;-74
2021/12/25 07:15:44;;;;;;;15.68;11.13;;;3.30;71.40;;;;;;5021832;28;20778;-74
2021/12/25 07:18:09;;;;;;;14.75;11.43;;;3.20;72.10;;;;;;5030976;28;20440;-74
2021/12/25 07:20:35;;;;;;;15.50;10.87;;;3.20;72.90;;;;;;5034807;28;20391;-74
2021/12/25 07:23:01;;;;;;;13.80;10.60;;;3.20;72.00;;;;;;5034588;28;20387;-74
2021/12/25 07:25:26;;;;;;;16.52;12.02;;;3.20;72.50;;;;;;5030839;28;20868;-74
2021/12/25 07:27:52;;;;;;;14.10;10.63;;;3.10;73.30;;;;;;5015319;28;20396;-74
2021/12/25 07:30:18;;;;;;;16.80;11.37;;;3.20;72.10;;;;;;5015763;28;20747;-74
2021/12/25 07:32:44;;;;;;;14.32;11.05;;;3.10;72.80;;;;;;5025463;28;20400;-74
2021/12/25 07:35:10;;;;;;;15.63;10.85;;;3.10;72.30;;;;;;5014857;28;20385;-74
2021/12/25 07:37:36;;;;;;;14.30;11.38;;;3.10;71.50;;;;;;5025191;28;20460;-74
2021/12/25 07:40:04;;;;;;;15.57;11.32;;;3.00;73.10;;;;;;5026504;28;20398;-74
2021/12/25 07:42:30;;;;;;;15.40;10.70;;;3.10;73.20;;;;;;5035847;28;20389;-74
2021/12/25 07:45:02;;;;;;;16.10;11.23;;;3.10;70.90;;;;;;5030111;28;20510;-74
2021/12/25 07:47:28;;;;;;;14.55;11.43;;;3.00;71.10;;;;;;5033216;28;20387;-74
2021/12/25 07:49:56;;;;;;;15.77;12.00;;;3.00;71.70;;;;;;5027596;28;20427;-74
2021/12/25 07:52:22;;;;;;;13.90;11.18;;;3.00;72.70;;;;;;5014939;28;20385;-74
2021/12/25 07:54:48;;;;;;;16.45;11.15;;;3.00;71.00;;;;;;5016915;28;20418;-76
2021/12/25 07:57:14;;;;;;;14.73;11.07;;;3.00;71.90;;;;;;5032232;28;20445;-75
2021/12/25 07:59:39;;;;;;;16.35;10.80;;;3.00;71.20;;;;;;5031631;28;20396;-72
2021/12/25 08:02:05;;;;;;;17.77;12.20;;;3.10;76.50;;;;;;5026759;28;20396;-73
2021/12/25 08:04:31;;;;;;;13.63;10.73;;;3.20;74.40;;;;;;5019502;28;20489;-73
2021/12/25 08:06:56;;;;;;;12.10;9.60;;;3.20;70.20;;;;;;5036857;28;20401;-73
2021/12/25 08:09:28;;;;;;;13.02;10.55;;;3.20;69.00;;;;;;5019469;28;20405;-73
2021/12/25 08:11:59;;;;;;;15.45;11.70;;;3.20;67.90;;;;;;5031861;28;20399;-72
2021/12/25 08:14:25;;;;;;;14.10;11.10;;;3.10;69.10;;;;;;5033701;28;20888;-74
2021/12/25 08:16:53;;;;;;;14.85;11.10;;;3.00;69.00;;;;;;5031604;28;20414;-73
2021/12/25 08:19:19;;;;;;;14.20;11.32;;;3.10;68.10;;;;;;5037604;28;20402;-73
2021/12/25 08:21:44;;;;;;;15.15;11.57;;;3.10;68.30;;;;;;5037442;28;20386;-72
2021/12/25 08:24:10;;;;;;;13.30;10.63;;;3.10;67.90;;;;;;5035793;28;20858;-76
2021/12/25 08:26:36;;;;;;;13.80;10.73;;;3.10;66.40;;;;;;5047786;28;20796;-76
2021/12/25 08:29:01;;;;;;;13.37;10.73;;;3.10;66.90;;;;;;5044378;28;20406;-75
2021/12/25 08:31:27;;;;;;;13.03;10.50;;;3.10;67.30;;;;;;5023232;28;20408;-76
2021/12/25 08:33:52;;;;;;;17.33;10.90;;;3.00;67.30;;;;;;5023549;28;20418;-75
2021/12/25 08:36:18;;;;;;;13.80;10.90;;;3.00;69.00;;;;;;5029519;28;20416;-76
2021/12/25 08:38:44;;;;;;;14.55;11.73;;;2.90;67.50;;;;;;5030672;28;20452;-76
2021/12/25 08:41:09;;;;;;;15.60;11.50;;;3.00;71.20;;;;;;5033056;28;20753;-76
2021/12/25 08:43:45;;;;;;;14.70;10.80;;;3.00;69.70;;;;;;5028222;28;20399;-75
2021/12/25 08:46:17;;;;;;;12.85;10.90;;;3.10;65.80;;;;;;5032703;28;20416;-77
2021/12/25 08:48:44;;;;;;;18.10;11.65;;;3.00;66.50;;;;;;5028833;28;20407;-76
2021/12/25 08:51:10;;;;;;;14.15;11.10;;;3.10;68.70;;;;;;5047320;28;20860;-77
2021/12/25 08:53:35;;;;;;;13.93;11.00;;;3.00;69.10;;;;;;5030193;28;20479;-76
2021/12/25 08:56:01;;;;;;;13.65;10.15;;;2.90;67.80;;;;;;5048753;28;20411;-76
2021/12/25 08:58:32;;;;;;;13.30;10.50;;;3.10;65.70;;;;;;5054168;28;20401;-74
2021/12/25 09:01:06;;;;;;;15.27;10.85;;;3.10;65.60;;;;;;5057063;28;20412;-75
2021/12/25 09:03:31;;;;;;;16.83;11.52;;;2.90;66.20;;;;;;5033546;28;20404;-76
2021/12/25 09:06:00;;;;;;;14.03;11.20;;;3.00;66.40;;;;;;5027271;28;20399;-76
2021/12/25 09:08:26;;;;;;;14.00;11.10;;;3.10;65.40;;;;;;5028928;28;20476;-76
2021/12/25 09:10:52;;;;;;;15.93;11.30;;;3.00;65.90;;;;;;5023944;28;20391;-74
2021/12/25 09:13:18;;;;;;;16.25;12.20;;;3.10;66.60;;;;;;5034629;28;20391;-76
2021/12/25 09:15:44;;;;;;;16.93;12.23;;;3.00;66.90;;;;;;5041826;28;20399;-76
2021/12/25 09:18:09;;;;;;;15.10;11.90;;;3.10;66.50;;;;;;5030253;28;20482;-75
2021/12/25 09:20:36;;;;;;;23.13;14.05;;;3.30;64.10;;;;;;5039805;28;20427;-77
2021/12/25 09:23:02;;;;;;;19.20;11.70;;;3.10;63.40;;;;;;5036476;28;20425;-75
2021/12/25 09:25:28;;;;;;;14.82;11.30;;;3.20;61.70;;;;;;5044934;28;20427;-74
2021/12/25 09:27:54;;;;;;;16.13;11.90;;;3.20;61.70;;;;;;5041123;28;20394;-75
2021/12/25 09:30:21;;;;;;;15.83;11.63;;;3.20;63.70;;;;;;5026994;28;20473;-75
2021/12/25 09:32:47;;;;;;;19.70;11.85;;;3.30;64.80;;;;;;5038152;28;20402;-74
2021/12/25 09:35:13;;;;;;;14.55;11.52;;;3.30;63.20;;;;;;5028352;28;20400;-75
2021/12/25 09:37:39;;;;;;;15.00;11.63;;;3.10;64.40;;;;;;5028498;28;20449;-74
2021/12/25 09:40:08;;;;;;;15.77;11.90;;;3.10;67.70;;;;;;5043893;28;20417;-74
2021/12/25 09:42:34;;;;;;;15.80;12.15;;;3.20;65.00;;;;;;5051309;28;20597;-75
2021/12/25 09:45:00;;;;;;;14.07;11.10;;;3.30;63.30;;;;;;5035016;28;20441;-75
2021/12/25 09:47:26;;;;;;;14.25;11.00;;;3.30;64.50;;;;;;5031557;28;20397;-75
2021/12/25 09:49:52;;;;;;;14.70;11.27;;;3.30;63.00;;;;;;5031008;28;20459;-74
2021/12/25 09:52:19;;;;;;;13.93;11.20;;;3.20;63.00;;;;;;5034749;28;20399;-75
2021/12/25 09:54:45;;;;;;;14.63;11.45;;;3.10;64.10;;;;;;5038734;28;20398;-74
2021/12/25 09:57:13;;;;;;;13.90;10.90;;;3.10;63.10;;;;;;5019588;28;20413;-76
2021/12/25 09:59:38;;;;;;;13.23;10.30;;;3.20;61.00;;;;;;5053410;28;20397;-76
2021/12/25 10:02:10;;;;;;;11.73;9.68;;;3.20;61.30;;;;;;5033568;28;20762;-75
2021/12/25 10:04:40;;;;;;;13.00;10.10;;;3.10;61.20;;;;;;5015836;28;20786;-75
2021/12/25 10:07:12;;;;;;;11.30;9.27;;;3.20;61.40;;;;;;5020645;28;20395;-75
2021/12/25 10:09:38;;;;;;;12.75;10.13;;;3.30;59.60;;;;;;5026583;28;20398;-74
2021/12/25 10:12:08;;;;;;;11.82;9.45;;;3.00;62.40;;;;;;5033590;28;20400;-74
2021/12/25 10:14:35;;;;;;;16.23;10.20;;;3.10;61.60;;;;;;5013028;28;20403;-74
2021/12/25 10:17:15;;;;;;;14.03;8.77;;;3.40;61.90;;;;;;5017832;28;20407;-74
2021/12/25 10:19:41;;;;;;;10.77;8.53;;;3.40;56.10;;;;;;5025534;28;20406;-73
2021/12/25 10:22:10;;;;;;;10.20;7.60;;;3.40;56.70;;;;;;5026582;28;20484;-72
2021/12/25 10:24:50;;;;;;;10.35;8.10;;;3.30;56.40;;;;;;5023535;28;20395;-71
2021/12/25 10:27:20;;;;;;;11.07;7.70;;;3.40;54.80;;;;;;5026398;28;20397;-74
2021/12/25 10:29:47;;;;;;;9.10;7.65;;;3.30;57.00;;;;;;5011032;28;20397;-72
2021/12/25 10:32:22;;;;;;;12.38;7.35;;;3.30;56.30;;;;;;5026389;28;20869;-76
2021/12/25 10:34:49;;;;;;;8.85;7.50;;;3.20;54.90;;;;;;5011082;28;20388;-74
2021/12/25 10:37:17;;;;;;;8.95;8.02;;;3.20;55.10;;;;;;5011166;28;20412;-74
2021/12/25 10:39:44;;;;;;;9.98;7.38;;;3.20;58.10;;;;;;5025586;28;20493;-76
2021/12/25 10:42:18;;;;;;;8.90;7.22;;;3.50;54.60;;;;;;5030008;28;20477;-75
2021/12/25 10:44:53;;;;;;;8.10;6.70;;;3.60;55.70;;;;;;5029121;28;20399;-73
2021/12/25 10:47:28;;;;;;;8.85;7.18;;;3.60;53.40;;;;;;5010789;28;20412;-77
2021/12/25 10:50:01;;;;;;;8.93;6.70;;;3.40;56.60;;;;;;5013404;28;20404;-76
2021/12/25 10:52:31;;;;;;;7.97;6.10;;;3.40;52.70;;;;;;5010926;28;20472;-76
2021/12/25 10:55:04;;;;;;;7.80;6.10;;;3.40;54.20;;;;;;5028113;28;20762;-75
2021/12/25 10:57:47;;;;;;;7.20;6.50;;;3.60;51.50;;;;;;5030310;28;20453;-77
2021/12/25 11:00:22;;;;;;;7.57;6.00;;;3.50;54.00;;;;;;5030506;28;20387;-76
2021/12/25 11:02:52;;;;;;;7.47;6.03;;;3.50;53.20;;;;;;5020760;28;20590;-75
2021/12/25 11:05:31;;;;;;;7.10;6.30;;;3.70;52.10;;;;;;5020984;28;20483;-76
2021/12/25 11:08:21;;;;;;;9.25;5.72;;;3.80;52.70;;;;;;5021886;28;20393;-75
2021/12/25 11:10:58;;;;;;;5.72;5.22;;;3.80;50.10;;;;;;5022419;28;20414;-75
2021/12/25 11:13:42;;;;;;;9.05;5.63;;;3.70;49.80;;;;;;5024894;28;20550;-73
2021/12/25 11:19:12;;;;;;;7.00;5.70;;;3.40;52.00;;;;;;5020649;28;20402;-73
2021/12/25 11:21:43;;;;;;;6.75;5.20;;;3.40;52.10;;;;;;5026175;28;20404;-73
2021/12/25 11:24:19;;;;;;;5.72;5.13;;;3.50;49.90;;;;;;5032450;28;20395;-73
2021/12/25 11:26:57;;;;;;;5.30;4.70;;;3.40;49.80;;;;;;5047597;28;20469;-71
2021/12/25 11:29:25;;;;;;;6.78;5.60;;;3.40;50.40;;;;;;5021263;28;20745;-72
2021/12/25 11:31:52;;;;;;;7.17;5.67;;;3.30;50.50;;;;;;5030434;28;20455;-73
2021/12/25 11:34:19;;;;;;;7.53;5.43;;;3.20;53.20;;;;;;5025822;28;20403;-72
2021/12/25 11:36:48;;;;;;;5.80;5.20;;;3.40;54.20;;;;;;5030636;28;20418;-74
2021/12/25 11:39:15;;;;;;;5.50;4.90;;;3.70;51.00;;;;;;5028916;28;20486;-75
2021/12/25 11:41:42;;;;;;;7.13;4.72;;;3.90;46.70;;;;;;5014290;28;20683;-75
2021/12/25 11:44:40;;;;;;;7.20;5.60;;;4.00;45.90;;;;;;5019966;28;20431;-75
2021/12/25 11:47:10;;;;;;;7.43;5.50;;;3.50;50.50;;;;;;5013986;28;20392;-75
2021/12/25 11:49:52;;;;;;;6.30;4.75;;;3.30;54.20;;;;;;5021092;28;20776;-75
2021/12/25 11:52:19;;;;;;;8.02;5.60;;;3.60;48.10;;;;;;5017879;28;20489;-76
2021/12/25 12:00:45;;;;;;;5.88;4.88;;;3.60;47.20;;;;;;5026829;28;20461;-74
2021/12/25 12:03:38;;;;;;;5.70;5.10;;;3.60;48.10;;;;;;5020381;28;20768;-76
2021/12/25 12:06:05;;;;;;;8.35;5.93;;;3.40;50.40;;;;;;5026174;28;20407;-74
2021/12/25 12:08:53;;;;;;;5.00;4.50;;;3.40;51.40;;;;;;5029070;28;20432;-76
2021/12/25 12:11:26;;;;;;;8.73;5.57;;;3.50;49.50;;;;;;5031832;28;20402;-74
2021/12/25 12:14:16;;;;;;;8.77;4.95;;;3.30;50.50;;;;;;5017325;28;20408;-75
2021/12/25 12:17:04;;;;;;;6.40;5.20;;;3.40;50.70;;;;;;5025906;28;20434;-74
2021/12/25 12:19:33;;;;;;;4.75;4.32;;;3.60;50.30;;;;;;5032670;28;20391;-73
2021/12/25 12:27:47;;;;;;;5.68;5.07;;;3.60;48.00;;;;;;5032314;28;20963;-73
2021/12/25 12:30:39;;;;;;;6.40;5.28;;;3.70;46.20;;;;;;5015409;28;20432;-74
2021/12/25 12:33:17;;;;;;;5.50;4.80;;;3.70;47.80;;;;;;5032925;28;20473;-72
2021/12/25 12:35:45;;;;;;;5.28;4.78;;;3.70;47.20;;;;;;5032892;28;20979;-72
2021/12/25 12:38:36;;;;;;;7.05;4.60;;;3.60;46.50;;;;;;5031851;28;20911;-73
2021/12/25 12:41:21;;;;;;;7.45;5.00;;;3.60;46.00;;;;;;5014666;28;20423;-73
2021/12/25 12:44:03;;;;;;;6.00;4.83;;;3.40;48.00;;;;;;5015785;28;20401;-73
2021/12/25 12:46:47;;;;;;;6.20;4.90;;;3.50;47.60;;;;;;5012502;28;20412;-73
2021/12/25 12:49:13;;;;;;;6.40;4.40;;;3.60;48.10;;;;;;5013023;28;20435;-72
2021/12/25 12:51:39;;;;;;;5.23;4.73;;;3.70;46.60;;;;;;5026171;28;20453;-72
2021/12/25 12:54:05;;;;;;;4.55;4.10;;;3.70;46.20;;;;;;5031843;28;20784;-73
2021/12/25 12:56:31;;;;;;;8.07;5.40;;;3.70;46.80;;;;;;5031697;28;20457;-72
2021/12/25 12:58:57;;;;;;;4.90;4.40;;;3.80;47.70;;;;;;5044055;28;20393;-72
2021/12/25 13:01:27;;;;;;;6.38;4.90;;;3.70;45.30;;;;;;5052409;28;20378;-72
2021/12/25 13:03:58;;;;;;;5.75;5.03;;;3.60;47.40;;;;;;5033961;28;20445;-72
2021/12/25 13:06:27;;;;;;;6.45;5.07;;;3.70;48.20;;;;;;5032088;28;20390;-72
2021/12/25 13:08:53;;;;;;;6.80;4.93;;;3.90;47.70;;;;;;5032590;28;20391;-73
2021/12/25 13:14:17;;;;;;;5.43;4.35;;;4.10;44.80;;;;;;5019665;28;20400;-72
2021/12/25 13:16:43;;;;;;;5.20;4.32;;;4.30;42.30;;;;;;5016099;28;20541;-73
2021/12/25 13:19:09;;;;;;;4.70;4.30;;;4.10;42.40;;;;;;5032279;28;20383;-72
2021/12/25 13:21:36;;;;;;;4.97;4.40;;;3.80;43.50;;;;;;5032118;28;20410;-72
2021/12/25 13:24:14;;;;;;;6.15;4.05;;;3.90;43.00;;;;;;5023601;28;20775;-74
2021/12/25 13:26:47;;;;;;;4.32;3.92;;;3.90;43.90;;;;;;5012659;28;20395;-73
2021/12/25 13:29:17;;;;;;;5.00;4.40;;;4.00;43.50;;;;;;5012811;28;20388;-71
2021/12/25 13:31:44;;;;;;;4.40;4.00;;;4.10;43.50;;;;;;5026394;28;20445;-72
2021/12/25 13:34:23;;;;;;;6.25;3.85;;;3.90;42.30;;;;;;5035725;28;20395;-74
2021/12/25 13:36:54;;;;;;;4.80;4.10;;;3.80;43.70;;;;;;5036399;28;20442;-73
2021/12/25 13:39:26;;;;;;;4.82;4.32;;;3.70;44.30;;;;;;5018381;28;20545;-73
2021/12/25 13:41:55;;;;;;;5.15;4.55;;;3.50;45.20;;;;;;5015532;28;20377;-73
2021/12/25 13:44:27;;;;;;;5.05;4.00;;;3.30;47.00;;;;;;5012022;28;20382;-74
2021/12/25 13:46:57;;;;;;;4.85;4.00;;;3.10;48.40;;;;;;5015710;28;20388;-72
2021/12/25 13:49:39;;;;;;;8.20;4.10;;;2.90;49.50;;;;;;5023610;28;20897;-73
2021/12/25 13:52:09;;;;;;;4.15;3.78;;;3.10;48.40;;;;;;5034688;28;20383;-73
2021/12/25 13:54:40;;;;;;;4.75;4.15;;;2.90;49.60;;;;;;5027495;28;20404;-75
2021/12/25 13:57:07;;;;;;;4.13;3.63;;;3.30;48.10;;;;;;5017070;28;20478;-74
2021/12/25 13:59:34;;;;;;;4.05;3.75;;;3.40;46.20;;;;;;5051109;28;20389;-74
2021/12/25 14:02:04;;;;;;;5.45;4.03;;;3.40;45.00;;;;;;5055049;28;20972;-72
2021/12/25 14:04:31;;;;;;;4.18;3.78;;;3.30;47.10;;;;;;5056152;28;20385;-72
2021/12/25 14:06:57;;;;;;;4.20;3.33;;;3.40;45.60;;;;;;5038447;28;20543;-73
2021/12/25 14:09:23;;;;;;;5.00;3.60;;;3.40;45.60;;;;;;5020230;28;20419;-73
2021/12/25 14:11:55;;;;;;;3.73;3.43;;;3.40;45.60;;;;;;5037926;28;20438;-74
2021/12/25 14:14:22;;;;;;;6.78;3.97;;;3.20;46.40;;;;;;5038872;28;20502;-73
2021/12/25 14:16:48;;;;;;;4.20;3.80;;;3.20;46.30;;;;;;5034980;28;20769;-73
2021/12/25 14:19:14;;;;;;;3.90;3.60;;;3.10;47.40;;;;;;5017833;28;20395;-74
2021/12/25 14:21:52;;;;;;;3.88;3.45;;;2.90;49.30;;;;;;5016305;28;20396;-73
2021/12/25 14:24:17;;;;;;;5.82;3.50;;;3.10;47.70;;;;;;5016086;28;20392;-73